createdAt,value
2022-12-20T00:00:58.695Z,1.24
2022-12-20T00:01:58.810Z,1.26
2022-12-20T00:02:58.728Z,1.26
2022-12-20T00:03:58.733Z,1.26
2022-12-20T00:04:58.663Z,1.27
2022-12-20T00:05:58.657Z,1.27
2022-12-20T00:06:58.625Z,1.24
2022-12-20T00:07:58.636Z,1.24
2022-12-20T00:08:58.598Z,1.24
2022-12-20T00:09:58.641Z,1.26
2022-12-20T00:10:58.571Z,1.27
2022-12-20T00:11:58.582Z,1.27
2022-12-20T00:12:58.550Z,1.27
2022-12-20T00:13:58.579Z,1.27
2022-12-20T00:14:58.561Z,1.26
2022-12-20T00:15:58.530Z,1.23
2022-12-20T00:16:58.484Z,1.18
2022-12-20T00:17:58.572Z,1.16
2022-12-20T00:18:58.493Z,1.15
2022-12-20T00:19:58.486Z,1.12
2022-12-20T00:20:58.445Z,1.09
2022-12-20T00:21:58.544Z,1.08
2022-12-20T00:22:58.412Z,1.05
2022-12-20T00:23:58.447Z,1.04
2022-12-20T00:24:58.402Z,1.04
2022-12-20T00:25:58.397Z,1.04
2022-12-20T00:26:58.365Z,1.05
2022-12-20T00:27:58.403Z,1.05
2022-12-20T00:28:58.345Z,1.04
2022-12-20T00:29:58.369Z,1.02
2022-12-20T00:30:58.985Z,1.00
2022-12-20T00:31:58.466Z,1.04
2022-12-20T00:32:58.285Z,1.04
2022-12-20T00:33:58.293Z,1.05
2022-12-20T00:34:58.262Z,1.08
2022-12-20T00:35:58.283Z,1.11
2022-12-20T00:36:58.296Z,1.14
2022-12-20T00:37:58.237Z,1.18
2022-12-20T00:38:58.228Z,1.22
2022-12-20T00:39:58.232Z,1.26
2022-12-20T00:40:58.181Z,1.30
2022-12-20T00:41:58.247Z,1.36
2022-12-20T00:42:58.154Z,1.37
2022-12-20T00:43:58.167Z,1.40
2022-12-20T00:44:58.139Z,1.44
2022-12-20T00:45:58.148Z,1.44
2022-12-20T00:46:58.240Z,1.47
2022-12-20T00:47:58.137Z,1.50
2022-12-20T00:48:58.076Z,1.51
2022-12-20T00:49:58.096Z,1.52
2022-12-20T00:50:58.054Z,1.54
2022-12-20T00:51:58.117Z,1.55
2022-12-20T00:52:58.052Z,1.58
2022-12-20T00:53:58.064Z,1.55
2022-12-20T00:54:58.003Z,1.55
2022-12-20T00:55:58.035Z,1.54
2022-12-20T00:56:57.981Z,1.52
2022-12-20T00:57:58.003Z,1.48
2022-12-20T00:58:57.946Z,1.45
2022-12-20T00:59:57.964Z,1.42
2022-12-20T01:00:57.982Z,1.42
2022-12-20T01:01:58.160Z,1.41
2022-12-20T01:02:58.107Z,1.40
2022-12-20T01:03:57.921Z,1.37
2022-12-20T01:04:57.881Z,1.30
2022-12-20T01:05:57.906Z,1.27
2022-12-20T01:06:57.877Z,1.26
2022-12-20T01:07:57.865Z,1.24
2022-12-20T01:08:57.835Z,1.22
2022-12-20T01:09:57.868Z,1.20
2022-12-20T01:10:57.805Z,1.22
2022-12-20T01:11:57.839Z,1.22
2022-12-20T01:12:57.781Z,1.23
2022-12-20T01:13:57.781Z,1.22
2022-12-20T01:14:57.774Z,1.22
2022-12-20T01:15:57.830Z,1.24
2022-12-20T01:16:57.817Z,1.24
2022-12-20T01:17:57.743Z,1.23
2022-12-20T01:18:57.711Z,1.23
2022-12-20T01:19:57.728Z,1.23
2022-12-20T01:20:57.664Z,1.23
2022-12-20T01:21:57.690Z,1.26
2022-12-20T01:22:57.660Z,1.29
2022-12-20T01:23:57.695Z,1.30
2022-12-20T01:24:57.651Z,1.37
2022-12-20T01:25:57.665Z,1.42
2022-12-20T01:26:57.604Z,1.45
2022-12-20T01:27:57.607Z,1.48
2022-12-20T01:28:57.562Z,1.50
2022-12-20T01:29:57.602Z,1.52
2022-12-20T01:30:57.541Z,1.54
2022-12-20T01:31:57.628Z,1.52
2022-12-20T01:32:57.516Z,1.52
2022-12-20T01:33:57.520Z,1.52
2022-12-20T01:34:57.512Z,1.54
2022-12-20T01:35:57.505Z,1.52
2022-12-20T01:36:57.472Z,1.50
2022-12-20T01:37:57.487Z,1.47
2022-12-20T01:38:57.465Z,1.45
2022-12-20T01:39:57.441Z,1.44
2022-12-20T01:40:57.446Z,1.40
2022-12-20T01:41:57.448Z,1.34
2022-12-20T01:42:57.408Z,1.34
2022-12-20T01:43:57.406Z,1.32
2022-12-20T01:44:57.372Z,1.26
2022-12-20T01:45:57.491Z,1.22
2022-12-20T01:46:57.374Z,1.16
2022-12-20T01:47:57.330Z,1.12
2022-12-20T01:48:57.336Z,1.11
2022-12-20T01:49:57.304Z,1.08
2022-12-20T01:50:57.308Z,1.08
2022-12-20T01:51:57.325Z,1.09
2022-12-20T01:52:57.269Z,1.08
2022-12-20T01:53:57.245Z,1.09
2022-12-20T01:54:57.253Z,1.09
2022-12-20T01:55:57.230Z,1.14
2022-12-20T01:56:57.245Z,1.15
2022-12-20T01:57:57.199Z,1.14
2022-12-20T01:58:57.216Z,1.14
2022-12-20T01:59:57.181Z,1.12
2022-12-20T02:00:57.258Z,1.11
2022-12-20T02:01:57.466Z,1.09
2022-12-20T02:02:57.328Z,1.09
2022-12-20T02:03:57.116Z,1.11
2022-12-20T02:04:57.128Z,1.11
2022-12-20T02:05:57.088Z,1.11
2022-12-20T02:06:57.093Z,1.12
2022-12-20T02:07:57.088Z,1.14
2022-12-20T02:08:57.107Z,1.16
2022-12-20T02:09:57.053Z,1.16
2022-12-20T02:10:57.055Z,1.24
2022-12-20T02:11:57.011Z,1.29
2022-12-20T02:12:57.047Z,1.29
2022-12-20T02:13:56.994Z,1.33
2022-12-20T02:14:57.005Z,1.36
2022-12-20T02:15:56.968Z,1.41
2022-12-20T02:16:57.021Z,1.40
2022-12-20T02:17:56.983Z,1.37
2022-12-20T02:18:56.967Z,1.36
2022-12-20T02:19:56.918Z,1.36
2022-12-20T02:20:56.933Z,1.36
2022-12-20T02:21:56.889Z,1.37
2022-12-20T02:22:56.919Z,1.40
2022-12-20T02:23:56.884Z,1.40
2022-12-20T02:24:56.872Z,1.37
2022-12-20T02:25:56.833Z,1.40
2022-12-20T02:26:56.851Z,1.41
2022-12-20T02:27:56.848Z,1.42
2022-12-20T02:28:56.836Z,1.42
2022-12-20T02:29:56.786Z,1.40
2022-12-20T02:30:56.798Z,1.37
2022-12-20T02:31:56.879Z,1.41
2022-12-20T02:32:56.768Z,1.37
2022-12-20T02:33:56.744Z,1.32
2022-12-20T02:34:56.753Z,1.29
2022-12-20T02:35:56.713Z,1.27
2022-12-20T02:36:56.739Z,1.27
2022-12-20T02:37:56.683Z,1.26
2022-12-20T02:38:56.691Z,1.23
2022-12-20T02:39:56.659Z,1.20
2022-12-20T02:40:56.689Z,1.20
2022-12-20T02:41:56.635Z,1.23
2022-12-20T02:42:56.641Z,1.26
2022-12-20T02:43:56.591Z,1.27
2022-12-20T02:44:56.640Z,1.27
2022-12-20T02:45:56.639Z,1.26
2022-12-20T02:46:56.589Z,1.29
2022-12-20T02:47:56.548Z,1.27
2022-12-20T02:48:56.573Z,1.26
2022-12-20T02:49:56.553Z,1.26
2022-12-20T02:50:56.537Z,1.27
2022-12-20T02:51:56.493Z,1.27
2022-12-20T02:52:56.515Z,1.27
2022-12-20T02:53:56.480Z,1.30
2022-12-20T02:54:56.501Z,1.33
2022-12-20T02:55:56.452Z,1.34
2022-12-20T02:56:56.485Z,1.36
2022-12-20T02:58:00.319Z,1.36
2022-12-20T02:58:56.491Z,1.37
2022-12-20T02:59:56.410Z,1.40
2022-12-20T03:00:56.438Z,1.42
2022-12-20T03:01:56.562Z,1.45
2022-12-20T03:02:56.608Z,1.47
2022-12-20T03:03:56.339Z,1.51
2022-12-20T03:04:56.384Z,1.52
2022-12-20T03:05:56.323Z,1.52
2022-12-20T03:06:56.332Z,1.51
2022-12-20T03:07:56.287Z,1.51
2022-12-20T03:08:56.309Z,1.47
2022-12-20T03:09:56.299Z,1.44
2022-12-20T03:10:56.284Z,1.41
2022-12-20T03:11:56.248Z,1.36
2022-12-20T03:12:56.250Z,1.30
2022-12-20T03:13:56.227Z,1.27
2022-12-20T03:14:56.264Z,1.23
2022-12-20T03:15:56.206Z,1.24
2022-12-20T03:16:56.253Z,1.23
2022-12-20T03:17:56.167Z,1.24
2022-12-20T03:18:56.173Z,1.26
2022-12-20T03:19:56.157Z,1.26
2022-12-20T03:20:56.150Z,1.27
2022-12-20T03:21:56.105Z,1.29
2022-12-20T03:22:56.126Z,1.29
2022-12-20T03:23:56.095Z,1.27
2022-12-20T03:24:56.144Z,1.27
2022-12-20T03:25:56.057Z,1.27
2022-12-20T03:26:56.115Z,1.23
2022-12-20T03:27:56.047Z,1.20
2022-12-20T03:28:56.051Z,1.18
2022-12-20T03:29:55.996Z,1.18
2022-12-20T03:30:56.077Z,1.16
2022-12-20T03:31:55.998Z,1.15
2022-12-20T03:32:56.021Z,1.14
2022-12-20T03:33:55.966Z,1.15
2022-12-20T03:34:55.967Z,1.12
2022-12-20T03:35:55.945Z,1.11
2022-12-20T03:36:55.969Z,1.06
2022-12-20T03:37:55.924Z,1.06
2022-12-20T03:38:55.962Z,1.06
2022-12-20T03:39:55.874Z,1.08
2022-12-20T03:40:55.879Z,1.09
2022-12-20T03:41:55.850Z,1.14
2022-12-20T03:42:55.867Z,1.15
2022-12-20T03:43:55.828Z,1.20
2022-12-20T03:44:55.957Z,1.23
2022-12-20T03:45:55.827Z,1.23
2022-12-20T03:46:55.827Z,1.23
2022-12-20T03:47:55.777Z,1.20
2022-12-20T03:48:55.779Z,1.22
2022-12-20T03:49:55.778Z,1.20
2022-12-20T03:50:55.760Z,1.20
2022-12-20T03:51:55.730Z,1.18
2022-12-20T03:52:55.732Z,1.20
2022-12-20T03:53:55.736Z,1.24
2022-12-20T03:54:55.738Z,1.27
2022-12-20T03:55:55.683Z,1.30
2022-12-20T03:56:55.690Z,1.33
2022-12-20T03:57:55.652Z,1.32
2022-12-20T03:58:55.667Z,1.33
2022-12-20T03:59:55.650Z,1.37
2022-12-20T04:00:55.640Z,1.40
2022-12-20T04:01:55.783Z,1.42
2022-12-20T04:02:55.817Z,1.44
2022-12-20T04:03:55.623Z,1.42
2022-12-20T04:04:55.598Z,1.42
2022-12-20T04:05:55.578Z,1.41
2022-12-20T04:06:55.605Z,1.40
2022-12-20T04:07:55.537Z,1.37
2022-12-20T04:08:55.529Z,1.36
2022-12-20T04:09:55.499Z,1.36
2022-12-20T04:10:55.539Z,1.34
2022-12-20T04:11:55.470Z,1.34
2022-12-20T04:12:55.482Z,1.32
2022-12-20T04:13:55.466Z,1.33
2022-12-20T04:14:55.503Z,1.34
2022-12-20T04:16:00.307Z,1.34
2022-12-20T04:16:55.456Z,1.36
2022-12-20T04:17:55.421Z,1.40
2022-12-20T04:18:55.408Z,1.41
2022-12-20T04:19:55.378Z,1.42
2022-12-20T04:20:55.482Z,1.44
2022-12-20T04:22:00.769Z,1.45
2022-12-20T04:22:55.353Z,1.41
2022-12-20T04:23:55.313Z,1.33
2022-12-20T04:24:55.355Z,1.29
2022-12-20T04:25:55.282Z,1.24
2022-12-20T04:26:55.340Z,1.22
2022-12-20T04:27:55.260Z,1.16
2022-12-20T04:28:55.285Z,1.14
2022-12-20T04:29:55.246Z,1.15
2022-12-20T04:30:55.351Z,1.15
2022-12-20T04:31:55.341Z,1.16
2022-12-20T04:32:55.236Z,1.23
2022-12-20T04:33:55.185Z,1.29
2022-12-20T04:34:55.219Z,1.29
2022-12-20T04:35:55.164Z,1.30
2022-12-20T04:36:55.180Z,1.32
2022-12-20T04:37:55.163Z,1.32
2022-12-20T04:38:55.143Z,1.33
2022-12-20T04:39:55.133Z,1.33
2022-12-20T04:40:55.123Z,1.32
2022-12-20T04:41:55.086Z,1.32
2022-12-20T04:42:55.138Z,1.30
2022-12-20T04:43:55.067Z,1.29
2022-12-20T04:44:55.074Z,1.26
2022-12-20T04:45:55.033Z,1.29
2022-12-20T04:46:55.108Z,1.32
2022-12-20T04:47:55.025Z,1.34
2022-12-20T04:48:57.946Z,1.37
2022-12-20T04:49:55.027Z,1.40
2022-12-20T04:50:55.018Z,1.41
2022-12-20T04:51:54.969Z,1.40
2022-12-20T04:52:54.968Z,1.37
2022-12-20T04:53:54.991Z,1.36
2022-12-20T04:54:54.944Z,1.36
2022-12-20T04:55:54.908Z,1.36
2022-12-20T04:56:54.917Z,1.36
2022-12-20T04:57:54.884Z,1.36
2022-12-20T04:58:54.905Z,1.36
2022-12-20T04:59:54.853Z,1.36
2022-12-20T05:00:54.859Z,1.36
2022-12-20T05:01:54.913Z,1.36
2022-12-20T05:02:55.059Z,1.36
2022-12-20T05:03:54.960Z,1.34
2022-12-20T05:04:54.835Z,1.34
2022-12-20T05:05:54.784Z,1.34
2022-12-20T05:06:54.801Z,1.33
2022-12-20T05:07:54.781Z,1.34
2022-12-20T05:08:54.781Z,1.36
2022-12-20T05:09:54.755Z,1.37
2022-12-20T05:10:54.735Z,1.40
2022-12-20T05:11:54.694Z,1.41
2022-12-20T05:12:54.718Z,1.42
2022-12-20T05:13:54.668Z,1.44
2022-12-20T05:14:54.742Z,1.48
2022-12-20T05:15:54.695Z,1.50
2022-12-20T05:16:54.678Z,1.52
2022-12-20T05:17:54.625Z,1.54
2022-12-20T05:18:54.648Z,1.58
2022-12-20T05:19:54.630Z,1.58
2022-12-20T05:20:54.610Z,1.60
2022-12-20T05:21:54.591Z,1.60
2022-12-20T05:22:54.577Z,1.62
2022-12-20T05:23:54.565Z,1.65
2022-12-20T05:24:54.552Z,1.65
2022-12-20T05:25:54.524Z,1.66
2022-12-20T05:26:54.569Z,1.68
2022-12-20T05:27:54.512Z,1.69
2022-12-20T05:28:54.521Z,1.72
2022-12-20T05:29:54.465Z,1.70
2022-12-20T05:30:54.601Z,1.70
2022-12-20T05:31:54.570Z,1.68
2022-12-20T05:32:54.454Z,1.66
2022-12-20T05:33:54.433Z,1.63
2022-12-20T05:34:54.486Z,1.62
2022-12-20T05:35:54.594Z,1.59
2022-12-20T05:36:54.453Z,1.55
2022-12-20T05:37:54.409Z,1.55
2022-12-20T05:38:58.183Z,1.58
2022-12-20T05:39:54.418Z,1.59
2022-12-20T05:40:54.378Z,1.59
2022-12-20T05:41:54.327Z,1.60
2022-12-20T05:42:54.356Z,1.66
2022-12-20T05:43:54.309Z,1.70
2022-12-20T05:44:54.348Z,1.73
2022-12-20T05:45:54.289Z,1.77
2022-12-20T05:46:54.339Z,1.76
2022-12-20T05:47:54.261Z,1.73
2022-12-20T05:48:54.269Z,1.70
2022-12-20T05:49:54.223Z,1.66
2022-12-20T05:50:54.226Z,1.65
2022-12-20T05:51:54.193Z,1.62
2022-12-20T05:52:54.225Z,1.58
2022-12-20T05:53:54.193Z,1.54
2022-12-20T05:54:54.244Z,1.54
2022-12-20T05:55:54.323Z,1.54
2022-12-20T05:56:54.137Z,1.58
2022-12-20T05:57:54.099Z,1.58
2022-12-20T05:58:54.130Z,1.58
2022-12-20T05:59:54.657Z,1.59
2022-12-20T06:00:54.087Z,1.55
2022-12-20T06:01:54.196Z,1.58
2022-12-20T06:02:54.281Z,1.54
2022-12-20T06:03:54.113Z,1.55
2022-12-20T06:04:54.028Z,1.55
2022-12-20T06:05:54.016Z,1.59
2022-12-20T06:06:54.052Z,1.62
2022-12-20T06:07:54.022Z,1.65
2022-12-20T06:08:53.975Z,1.65
2022-12-20T06:09:53.984Z,1.68
2022-12-20T06:10:53.986Z,1.69
2022-12-20T06:11:53.959Z,1.70
2022-12-20T06:12:53.921Z,1.69
2022-12-20T06:13:53.937Z,1.66
2022-12-20T06:14:53.913Z,1.65
2022-12-20T06:15:54.071Z,1.63
2022-12-20T06:16:53.968Z,1.65
2022-12-20T06:17:53.916Z,1.63
2022-12-20T06:18:53.844Z,1.63
2022-12-20T06:19:53.855Z,1.66
2022-12-20T06:20:53.807Z,1.66
2022-12-20T06:21:53.854Z,1.65
2022-12-20T06:22:53.782Z,1.63
2022-12-20T06:23:53.807Z,1.63
2022-12-20T06:24:53.802Z,1.63
2022-12-20T06:25:53.787Z,1.66
2022-12-20T06:26:53.784Z,1.66
2022-12-20T06:27:53.789Z,1.65
2022-12-20T06:28:53.715Z,1.63
2022-12-20T06:29:53.728Z,1.59
2022-12-20T06:30:53.697Z,1.51
2022-12-20T06:31:53.759Z,1.50
2022-12-20T06:32:53.665Z,1.44
2022-12-20T06:33:53.668Z,1.42
2022-12-20T06:34:53.626Z,1.40
2022-12-20T06:35:53.633Z,1.34
2022-12-20T06:36:53.607Z,1.34
2022-12-20T06:37:53.635Z,1.33
2022-12-20T06:38:53.588Z,1.30
2022-12-20T06:39:53.591Z,1.32
2022-12-20T06:40:53.566Z,1.32
2022-12-20T06:41:53.566Z,1.33
2022-12-20T06:42:53.535Z,1.33
2022-12-20T06:43:53.596Z,1.33
2022-12-20T06:44:53.512Z,1.36
2022-12-20T06:45:53.521Z,1.42
2022-12-20T06:46:53.474Z,1.47
2022-12-20T06:47:53.510Z,1.50
2022-12-20T06:48:53.473Z,1.55
2022-12-20T06:49:53.479Z,1.60
2022-12-20T06:50:56.135Z,1.63
2022-12-20T06:51:53.445Z,1.66
2022-12-20T06:52:53.413Z,1.70
2022-12-20T06:53:53.417Z,1.76
2022-12-20T06:54:53.397Z,1.77
2022-12-20T06:55:53.496Z,1.77
2022-12-20T06:56:53.392Z,1.77
2022-12-20T06:57:53.434Z,1.77
2022-12-20T06:58:53.315Z,1.76
2022-12-20T06:59:53.401Z,1.77
2022-12-20T07:00:53.387Z,1.79
2022-12-20T07:01:53.440Z,1.80
2022-12-20T07:02:53.394Z,1.81
2022-12-20T07:03:53.367Z,1.79
2022-12-20T07:04:53.244Z,1.73
2022-12-20T07:05:53.261Z,1.72
2022-12-20T07:06:53.244Z,1.72
2022-12-20T07:07:53.230Z,1.72
2022-12-20T07:08:53.225Z,1.76
2022-12-20T07:09:53.216Z,1.76
2022-12-20T07:10:53.187Z,1.77
2022-12-20T07:11:53.209Z,1.77
2022-12-20T07:12:53.178Z,1.77
2022-12-20T07:13:53.170Z,1.77
2022-12-20T07:14:53.116Z,1.79
2022-12-20T07:15:53.127Z,1.77
2022-12-20T07:16:53.143Z,1.77
2022-12-20T07:17:53.145Z,1.77
2022-12-20T07:18:53.063Z,1.79
2022-12-20T07:19:53.101Z,1.81
2022-12-20T07:20:53.077Z,1.83
2022-12-20T07:21:53.093Z,1.84
2022-12-20T07:22:53.003Z,1.84
2022-12-20T07:23:53.031Z,1.86
2022-12-20T07:24:52.994Z,1.86
2022-12-20T07:25:53.025Z,1.88
2022-12-20T07:26:52.984Z,1.90
2022-12-20T07:27:52.969Z,1.90
2022-12-20T07:28:52.932Z,1.90
2022-12-20T07:29:52.946Z,1.93
2022-12-20T07:30:52.988Z,1.98
2022-12-20T07:31:52.996Z,2.00
2022-12-20T07:32:52.894Z,2.03
2022-12-20T07:33:52.916Z,2.06
2022-12-20T07:34:52.870Z,2.12
2022-12-20T07:35:54.908Z,2.17
2022-12-20T07:36:52.863Z,2.21
2022-12-20T07:37:52.887Z,2.24
2022-12-20T07:38:52.815Z,2.25
2022-12-20T07:39:52.883Z,2.25
2022-12-20T07:40:52.787Z,2.27
2022-12-20T07:41:52.805Z,2.30
2022-12-20T07:42:52.764Z,2.34
2022-12-20T07:43:52.774Z,2.35
2022-12-20T07:44:52.772Z,2.36
2022-12-20T07:45:52.799Z,2.36
2022-12-20T07:46:52.727Z,2.36
2022-12-20T07:47:52.746Z,2.36
2022-12-20T07:48:52.727Z,2.38
2022-12-20T07:49:52.746Z,2.35
2022-12-20T07:50:52.691Z,2.34
2022-12-20T07:51:52.697Z,2.28
2022-12-20T07:52:52.632Z,2.23
2022-12-20T07:53:52.716Z,2.18
2022-12-20T07:54:52.641Z,2.14
2022-12-20T07:55:52.633Z,2.12
2022-12-20T07:56:52.641Z,2.10
2022-12-20T07:57:52.601Z,2.09
2022-12-20T07:58:52.547Z,2.09
2022-12-20T07:59:52.555Z,2.09
2022-12-20T08:00:52.585Z,2.12
2022-12-20T08:01:52.717Z,2.14
2022-12-20T08:02:52.742Z,2.12
2022-12-20T08:03:52.639Z,2.10
2022-12-20T08:04:52.545Z,2.10
2022-12-20T08:05:52.483Z,2.07
2022-12-20T08:06:52.480Z,2.07
2022-12-20T08:07:58.691Z,2.07
2022-12-20T08:08:52.430Z,2.06
2022-12-20T08:09:52.492Z,2.07
2022-12-20T08:10:52.464Z,2.10
2022-12-20T08:11:52.409Z,2.17
2022-12-20T08:12:52.379Z,2.17
2022-12-20T08:13:57.506Z,2.21
2022-12-20T08:14:52.412Z,2.24
2022-12-20T08:15:52.385Z,2.25
2022-12-20T08:16:52.383Z,2.28
2022-12-20T08:17:52.343Z,2.31
2022-12-20T08:18:52.295Z,2.36
2022-12-20T08:19:52.354Z,2.38
2022-12-20T08:20:52.284Z,2.42
2022-12-20T08:21:52.300Z,2.45
2022-12-20T08:22:52.266Z,2.52
2022-12-20T08:23:52.295Z,2.53
2022-12-20T08:24:52.260Z,2.57
2022-12-20T08:25:52.254Z,2.59
2022-12-20T08:26:52.228Z,2.57
2022-12-20T08:27:52.230Z,2.56
2022-12-20T08:28:52.165Z,2.57
2022-12-20T08:29:52.183Z,2.57
2022-12-20T08:30:52.298Z,2.57
2022-12-20T08:31:52.247Z,2.59
2022-12-20T08:32:52.124Z,2.60
2022-12-20T08:33:52.139Z,2.63
2022-12-20T08:34:52.095Z,2.66
2022-12-20T08:35:52.120Z,2.66
2022-12-20T08:36:52.086Z,2.63
2022-12-20T08:37:52.113Z,2.64
2022-12-20T08:38:52.038Z,2.64
2022-12-20T08:39:52.073Z,2.66
2022-12-20T08:40:52.039Z,2.67
2022-12-20T08:41:52.042Z,2.69
2022-12-20T08:42:52.020Z,2.67
2022-12-20T08:43:52.012Z,2.64
2022-12-20T08:44:51.976Z,2.59
2022-12-20T08:45:52.028Z,2.56
2022-12-20T08:46:51.937Z,2.49
2022-12-20T08:47:52.081Z,2.48
2022-12-20T08:48:51.908Z,2.46
2022-12-20T08:49:51.929Z,2.45
2022-12-20T08:50:51.993Z,2.46
2022-12-20T08:51:51.991Z,2.49
2022-12-20T08:52:51.862Z,2.54
2022-12-20T08:53:51.866Z,2.57
2022-12-20T08:54:51.879Z,2.63
2022-12-20T08:55:51.865Z,2.67
2022-12-20T08:56:51.810Z,2.66
2022-12-20T08:57:51.829Z,2.64
2022-12-20T08:58:51.782Z,2.63
2022-12-20T08:59:51.873Z,2.63
2022-12-20T09:00:51.764Z,2.64
2022-12-20T09:01:51.896Z,2.67
2022-12-20T09:02:52.085Z,2.71
2022-12-20T09:03:51.878Z,2.74
2022-12-20T09:04:51.731Z,2.75
2022-12-20T09:05:51.732Z,2.79
2022-12-20T09:06:51.671Z,2.89
2022-12-20T09:07:51.693Z,2.92
2022-12-20T09:08:51.680Z,2.93
2022-12-20T09:09:51.697Z,2.93
2022-12-20T09:10:51.644Z,2.92
2022-12-20T09:11:51.660Z,2.95
2022-12-20T09:12:51.647Z,2.99
2022-12-20T09:13:51.628Z,3.02
2022-12-20T09:14:51.575Z,3.10
2022-12-20T09:15:51.695Z,3.13
2022-12-20T09:16:51.593Z,3.15
2022-12-20T09:17:51.567Z,3.13
2022-12-20T09:18:51.532Z,3.11
2022-12-20T09:19:51.552Z,3.10
2022-12-20T09:20:51.504Z,3.06
2022-12-20T09:21:51.532Z,3.08
2022-12-20T09:22:51.479Z,3.13
2022-12-20T09:23:51.490Z,3.15
2022-12-20T09:24:51.460Z,3.21
2022-12-20T09:25:53.879Z,3.26
2022-12-20T09:26:52.286Z,3.29
2022-12-20T09:27:51.444Z,3.31
2022-12-20T09:28:51.389Z,3.36
2022-12-20T09:29:51.422Z,3.36
2022-12-20T09:30:51.563Z,3.40
2022-12-20T09:31:51.388Z,3.42
2022-12-20T09:32:51.373Z,3.42
2022-12-20T09:33:51.342Z,3.42
2022-12-20T09:34:51.328Z,3.40
2022-12-20T09:35:51.334Z,3.45
2022-12-20T09:36:51.330Z,3.47
2022-12-20T09:37:51.343Z,3.47
2022-12-20T09:38:51.290Z,3.47
2022-12-20T09:39:51.274Z,3.47
2022-12-20T09:40:51.239Z,3.43
2022-12-20T09:41:51.268Z,3.42
2022-12-20T09:42:51.243Z,3.36
2022-12-20T09:43:51.273Z,3.36
2022-12-20T09:44:51.200Z,3.33
2022-12-20T09:45:51.221Z,3.31
2022-12-20T09:46:51.230Z,3.31
2022-12-20T09:47:51.195Z,3.31
2022-12-20T09:48:51.160Z,3.31
2022-12-20T09:49:51.155Z,3.31
2022-12-20T09:50:51.140Z,3.32
2022-12-20T09:51:51.157Z,3.31
2022-12-20T09:52:51.125Z,3.32
2022-12-20T09:53:51.107Z,3.32
2022-12-20T09:54:51.057Z,3.32
2022-12-20T09:55:51.088Z,3.32
2022-12-20T09:56:51.042Z,3.35
2022-12-20T09:57:51.094Z,3.39
2022-12-20T09:58:51.005Z,3.40
2022-12-20T09:59:51.027Z,3.47
2022-12-20T10:00:54.269Z,3.51
2022-12-20T10:01:51.061Z,3.55
2022-12-20T10:03:51.231Z,3.60
2022-12-20T10:04:51.151Z,3.60
2022-12-20T10:05:51.142Z,3.57
2022-12-20T10:06:50.916Z,3.55
2022-12-20T10:07:50.933Z,3.55
2022-12-20T10:08:50.889Z,3.57
2022-12-20T10:09:50.921Z,3.58
2022-12-20T10:10:50.890Z,3.62
2022-12-20T10:11:51.110Z,3.65
2022-12-20T10:12:50.854Z,3.68
2022-12-20T10:13:50.853Z,3.70
2022-12-20T10:14:50.827Z,3.73
2022-12-20T10:15:50.876Z,3.75
2022-12-20T10:16:50.804Z,3.76
2022-12-20T10:17:50.816Z,3.76
2022-12-20T10:18:50.769Z,3.76
2022-12-20T10:19:50.771Z,3.78
2022-12-20T10:20:50.762Z,3.83
2022-12-20T10:21:50.744Z,3.86
2022-12-20T10:22:50.761Z,3.88
2022-12-20T10:23:50.744Z,3.93
2022-12-20T10:24:50.731Z,3.97
2022-12-20T10:25:50.655Z,4.05
2022-12-20T10:26:50.716Z,4.14
2022-12-20T10:27:50.676Z,4.20
2022-12-20T10:28:54.223Z,4.24
2022-12-20T10:29:50.634Z,4.33
2022-12-20T10:30:50.693Z,4.36
2022-12-20T10:31:50.666Z,4.37
2022-12-20T10:32:50.606Z,4.42
2022-12-20T10:33:50.594Z,4.48
2022-12-20T10:34:50.606Z,4.54
2022-12-20T10:35:50.588Z,4.58
2022-12-20T10:36:50.554Z,4.59
2022-12-20T10:38:06.282Z,4.58
2022-12-20T10:38:50.533Z,4.55
2022-12-20T10:39:50.480Z,4.58
2022-12-20T10:41:50.472Z,4.62
2022-12-20T10:42:50.466Z,4.66
2022-12-20T10:43:50.492Z,4.70
2022-12-20T10:44:50.446Z,4.75
2022-12-20T10:45:50.440Z,4.77
2022-12-20T10:46:50.613Z,4.82
2022-12-20T10:47:50.402Z,4.84
2022-12-20T10:48:50.414Z,4.86
2022-12-20T10:49:50.406Z,4.86
2022-12-20T10:50:50.373Z,4.86
2022-12-20T10:51:50.332Z,4.85
2022-12-20T10:52:50.341Z,4.82
2022-12-20T10:53:50.318Z,4.82
2022-12-20T10:54:50.339Z,4.80
2022-12-20T10:55:50.307Z,4.82
2022-12-20T10:56:50.291Z,4.80
2022-12-20T10:57:50.243Z,4.78
2022-12-20T10:58:50.272Z,4.80
2022-12-20T10:59:50.244Z,4.80
2022-12-20T11:00:50.281Z,4.78
2022-12-20T11:01:50.338Z,4.80
2022-12-20T11:02:50.341Z,4.84
2022-12-20T11:03:50.378Z,4.80
2022-12-20T11:04:50.182Z,4.82
2022-12-20T11:05:50.144Z,4.84
2022-12-20T11:06:51.119Z,4.84
2022-12-20T11:08:08.549Z,4.80
2022-12-20T11:08:55.363Z,4.80
2022-12-20T11:09:50.104Z,4.80
2022-12-20T11:10:50.127Z,4.82
2022-12-20T11:11:50.080Z,4.85
2022-12-20T11:12:50.111Z,4.86
2022-12-20T11:13:50.050Z,4.88
2022-12-20T11:14:50.085Z,4.88
2022-12-20T11:15:50.468Z,4.88
2022-12-20T11:16:50.070Z,4.88
2022-12-20T11:17:49.990Z,4.86
2022-12-20T11:18:50.012Z,4.88
2022-12-20T11:19:49.979Z,4.88
2022-12-20T11:20:49.976Z,4.89
2022-12-20T11:21:49.958Z,4.91
2022-12-20T11:22:49.949Z,4.92
2022-12-20T11:23:49.898Z,4.92
2022-12-20T11:24:49.940Z,4.94
2022-12-20T11:25:49.905Z,4.96
2022-12-20T11:26:49.892Z,4.96
2022-12-20T11:27:49.868Z,4.97
2022-12-20T11:28:49.840Z,5.00
2022-12-20T11:29:49.847Z,5.00
2022-12-20T11:30:49.840Z,4.99
2022-12-20T11:31:49.925Z,4.99
2022-12-20T11:32:49.811Z,4.99
2022-12-20T11:33:49.845Z,5.02
2022-12-20T11:34:49.823Z,5.02
2022-12-20T11:35:49.787Z,5.04
2022-12-20T11:36:49.776Z,5.06
2022-12-20T11:37:49.740Z,5.07
2022-12-20T11:38:49.735Z,5.10
2022-12-20T11:39:49.720Z,5.13
2022-12-20T11:40:49.725Z,5.17
2022-12-20T11:41:49.696Z,5.20
2022-12-20T11:42:49.698Z,5.24
2022-12-20T11:44:23.291Z,5.27
2022-12-20T11:44:58.864Z,5.28
2022-12-20T11:45:49.683Z,5.30
2022-12-20T11:46:49.633Z,5.33
2022-12-20T11:47:49.682Z,5.35
2022-12-20T11:48:49.581Z,5.30
2022-12-20T11:49:49.637Z,5.27
2022-12-20T11:50:49.606Z,5.28
2022-12-20T11:51:49.566Z,5.30
2022-12-20T11:52:49.542Z,5.30
2022-12-20T11:53:49.545Z,5.30
2022-12-20T11:54:49.515Z,5.30
2022-12-20T11:55:49.527Z,5.27
2022-12-20T11:56:49.479Z,5.25
2022-12-20T11:58:16.951Z,5.24
2022-12-20T11:58:49.476Z,5.22
2022-12-20T11:59:49.511Z,5.22
2022-12-20T12:00:49.431Z,5.24
2022-12-20T12:01:49.598Z,5.28
2022-12-20T12:02:54.698Z,5.31
2022-12-20T12:03:49.419Z,5.31
2022-12-20T12:04:49.391Z,5.33
2022-12-20T12:05:49.443Z,5.38
2022-12-20T12:06:49.393Z,5.39
2022-12-20T12:07:49.361Z,5.40
2022-12-20T12:08:49.341Z,5.42
2022-12-20T12:09:49.351Z,5.45
2022-12-20T12:10:49.287Z,5.43
2022-12-20T12:12:06.793Z,5.43
2022-12-20T12:12:49.287Z,5.46
2022-12-20T12:13:49.276Z,5.46
2022-12-20T12:14:49.282Z,5.49
2022-12-20T12:15:49.282Z,5.48
2022-12-20T12:16:49.319Z,5.48
2022-12-20T12:17:49.235Z,5.46
2022-12-20T12:18:49.194Z,5.46
2022-12-20T12:19:49.205Z,5.48
2022-12-20T12:20:49.168Z,5.46
2022-12-20T12:21:49.198Z,5.48
2022-12-20T12:22:49.121Z,5.48
2022-12-20T12:23:49.142Z,5.48
2022-12-20T12:24:49.113Z,5.46
2022-12-20T12:25:49.140Z,5.48
2022-12-20T12:26:49.095Z,5.45
2022-12-20T12:27:49.126Z,5.38
2022-12-20T12:28:49.579Z,5.28
2022-12-20T12:29:49.098Z,5.27
2022-12-20T12:30:49.053Z,5.27
2022-12-20T12:31:49.189Z,5.27
2022-12-20T12:32:49.096Z,5.27
2022-12-20T12:33:49.051Z,5.27
2022-12-20T12:34:48.996Z,5.28
2022-12-20T12:35:48.988Z,5.31
2022-12-20T12:36:48.954Z,5.38
2022-12-20T12:37:48.972Z,5.39
2022-12-20T12:38:48.968Z,5.40
2022-12-20T12:39:48.959Z,5.43
2022-12-20T12:40:52.429Z,5.45
2022-12-20T12:41:48.915Z,5.45
2022-12-20T12:42:48.870Z,5.45
2022-12-20T12:43:48.927Z,5.45
2022-12-20T12:44:48.885Z,5.43
2022-12-20T12:45:48.979Z,5.43
2022-12-20T12:46:48.860Z,5.43
2022-12-20T12:47:48.847Z,5.42
2022-12-20T12:48:48.815Z,5.42
2022-12-20T12:49:48.831Z,5.42
2022-12-20T12:50:48.776Z,5.42
2022-12-20T12:51:48.822Z,5.42
2022-12-20T12:52:48.747Z,5.43
2022-12-20T12:53:48.769Z,5.46
2022-12-20T12:54:48.746Z,5.49
2022-12-20T12:55:48.755Z,5.54
2022-12-20T12:56:48.928Z,5.60
2022-12-20T12:57:48.697Z,5.65
2022-12-20T12:58:49.297Z,5.71
2022-12-20T12:59:48.850Z,5.75
2022-12-20T13:00:48.694Z,5.78
2022-12-20T13:01:48.785Z,5.79
2022-12-20T13:02:48.793Z,5.83
2022-12-20T13:03:48.810Z,5.86
2022-12-20T13:04:48.589Z,5.89
2022-12-20T13:05:48.601Z,5.93
2022-12-20T13:06:48.592Z,5.93
2022-12-20T13:07:48.594Z,5.96
2022-12-20T13:08:48.538Z,5.99
2022-12-20T13:09:48.556Z,6.00
2022-12-20T13:10:48.539Z,6.04
2022-12-20T13:11:52.281Z,6.08
2022-12-20T13:12:48.503Z,6.12
2022-12-20T13:13:48.537Z,6.12
2022-12-20T13:14:48.477Z,6.15
2022-12-20T13:15:48.499Z,6.15
2022-12-20T13:17:11.581Z,6.15
2022-12-20T13:17:48.556Z,6.17
2022-12-20T13:18:48.443Z,6.15
2022-12-20T13:19:48.430Z,6.15
2022-12-20T13:20:48.387Z,6.14